createdAt,value
2022-11-29T00:00:22.105Z,3.8
2022-11-29T00:03:22.155Z,3.8
2022-11-29T00:06:22.107Z,3.8
2022-11-29T00:09:22.138Z,3.8
2022-11-29T00:12:22.108Z,3.8
2022-11-29T00:15:22.113Z,3.8
2022-11-29T00:18:22.119Z,3.8
2022-11-29T00:21:22.118Z,3.8
2022-11-29T00:24:22.116Z,3.9
2022-11-29T00:27:22.144Z,3.9
2022-11-29T00:30:22.124Z,3.9
2022-11-29T00:33:22.131Z,3.9
2022-11-29T00:36:22.123Z,3.9
2022-11-29T00:39:22.127Z,3.9
2022-11-29T00:42:22.127Z,3.9
2022-11-29T00:45:22.164Z,3.9
2022-11-29T00:48:22.144Z,3.9
2022-11-29T00:51:22.138Z,3.9
2022-11-29T00:54:22.136Z,3.9
2022-11-29T00:57:22.136Z,3.9
2022-11-29T01:00:22.137Z,3.9
2022-11-29T01:03:22.176Z,3.9
2022-11-29T01:06:22.139Z,3.8
2022-11-29T01:09:22.142Z,3.9
2022-11-29T01:12:22.148Z,3.9
2022-11-29T01:15:22.141Z,3.9
2022-11-29T01:18:22.157Z,3.9
2022-11-29T01:21:22.172Z,3.9
2022-11-29T01:24:22.145Z,3.9
2022-11-29T01:27:22.151Z,3.9
2022-11-29T01:30:22.157Z,3.9
2022-11-29T01:33:22.156Z,3.9
2022-11-29T01:36:22.152Z,3.9
2022-11-29T01:39:22.190Z,3.9
2022-11-29T01:42:22.162Z,3.9
2022-11-29T01:45:22.157Z,3.9
2022-11-29T01:48:22.169Z,3.9
2022-11-29T01:51:22.164Z,3.9
2022-11-29T01:54:22.164Z,3.9
2022-11-29T01:57:22.191Z,3.9
2022-11-29T02:00:22.166Z,3.9
2022-11-29T02:03:22.199Z,3.9
2022-11-29T02:06:22.172Z,3.9
2022-11-29T02:09:22.170Z,3.9
2022-11-29T02:12:22.181Z,3.9
2022-11-29T02:15:22.199Z,3.9
2022-11-29T02:18:22.185Z,3.9
2022-11-29T02:21:22.179Z,3.9
2022-11-29T02:24:22.183Z,3.9
2022-11-29T02:27:22.183Z,3.9
2022-11-29T02:30:22.184Z,3.9
2022-11-29T02:33:22.230Z,3.9
2022-11-29T02:36:22.185Z,3.9
2022-11-29T02:39:22.187Z,3.9
2022-11-29T02:42:22.187Z,3.9
2022-11-29T02:45:22.199Z,3.9
2022-11-29T02:48:22.228Z,3.9
2022-11-29T02:51:22.234Z,3.9
2022-11-29T02:54:22.208Z,3.9
2022-11-29T02:57:22.209Z,3.9
2022-11-29T03:00:22.205Z,3.8
2022-11-29T03:03:22.225Z,3.8
2022-11-29T03:06:22.211Z,3.8
2022-11-29T03:09:22.240Z,3.8
2022-11-29T03:12:22.217Z,3.8
2022-11-29T03:15:22.225Z,3.8
2022-11-29T03:18:22.240Z,3.8
2022-11-29T03:21:22.228Z,3.8
2022-11-29T03:24:22.226Z,3.8
2022-11-29T03:27:22.258Z,3.8
2022-11-29T03:30:22.233Z,3.8
2022-11-29T03:33:22.246Z,3.8
2022-11-29T03:36:22.233Z,3.8
2022-11-29T03:39:22.236Z,3.8
2022-11-29T03:42:22.235Z,3.8
2022-11-29T03:45:22.272Z,3.8
2022-11-29T03:48:22.268Z,3.8
2022-11-29T03:51:22.243Z,3.7
2022-11-29T03:54:22.246Z,3.7
2022-11-29T03:57:22.247Z,3.7
2022-11-29T04:00:22.243Z,3.7
2022-11-29T04:03:22.282Z,3.7
2022-11-29T04:06:22.252Z,3.7
2022-11-29T04:09:22.252Z,3.7
2022-11-29T04:12:22.260Z,3.7
2022-11-29T04:15:22.257Z,3.7
2022-11-29T04:18:22.270Z,3.7
2022-11-29T04:21:22.288Z,3.7
2022-11-29T04:24:22.266Z,3.7
2022-11-29T04:27:22.272Z,3.7
2022-11-29T04:30:22.270Z,3.7
2022-11-29T04:33:22.279Z,3.7
2022-11-29T04:36:22.275Z,3.7
2022-11-29T04:39:22.305Z,3.7
2022-11-29T04:42:22.284Z,3.7
2022-11-29T04:45:22.288Z,3.7
2022-11-29T04:48:22.316Z,3.7
2022-11-29T04:51:22.293Z,3.7
2022-11-29T04:54:22.297Z,3.7
2022-11-29T04:57:22.320Z,3.7
2022-11-29T05:00:22.303Z,3.7
2022-11-29T05:03:22.318Z,3.7
2022-11-29T05:06:22.313Z,3.7
2022-11-29T05:09:22.318Z,3.7
2022-11-29T05:12:22.314Z,3.7
2022-11-29T05:15:22.343Z,3.7
2022-11-29T05:18:22.331Z,3.7
2022-11-29T05:21:22.328Z,3.8
2022-11-29T05:24:22.325Z,3.8
2022-11-29T05:27:22.330Z,3.8
2022-11-29T05:30:22.331Z,3.7
2022-11-29T05:33:22.376Z,3.8
2022-11-29T05:36:22.336Z,3.8
2022-11-29T05:39:22.340Z,3.8
2022-11-29T05:42:22.341Z,3.8
2022-11-29T05:45:22.347Z,3.8
2022-11-29T05:48:22.358Z,3.8
2022-11-29T05:51:22.377Z,3.8
2022-11-29T05:54:22.352Z,3.7
2022-11-29T05:57:22.351Z,3.7
2022-11-29T06:00:22.357Z,3.7
2022-11-29T06:03:22.375Z,3.7
2022-11-29T06:06:22.368Z,3.7
2022-11-29T06:09:22.399Z,3.7
2022-11-29T06:12:22.375Z,3.7
2022-11-29T06:15:22.376Z,3.7
2022-11-29T06:18:22.393Z,3.7
2022-11-29T06:21:22.388Z,3.7
2022-11-29T06:24:25.846Z,3.7
2022-11-29T06:27:22.409Z,3.6
2022-11-29T06:30:22.395Z,3.6
2022-11-29T06:33:22.410Z,3.6
2022-11-29T06:36:22.451Z,3.6
2022-11-29T06:39:22.400Z,3.6
2022-11-29T06:42:22.403Z,3.6
2022-11-29T06:45:22.429Z,3.6
2022-11-29T06:48:22.425Z,3.6
2022-11-29T06:51:22.413Z,3.6
2022-11-29T06:54:22.417Z,3.6
2022-11-29T06:57:22.421Z,3.6
2022-11-29T07:00:22.433Z,3.6
2022-11-29T07:03:22.463Z,3.6
2022-11-29T07:06:22.430Z,3.6
2022-11-29T07:09:22.432Z,3.6
2022-11-29T07:12:22.438Z,3.6
2022-11-29T07:15:22.441Z,3.6
2022-11-29T07:18:22.453Z,3.6
2022-11-29T07:21:22.473Z,3.6
2022-11-29T07:24:22.453Z,3.6
2022-11-29T07:27:22.465Z,3.6
2022-11-29T07:30:22.457Z,3.7
2022-11-29T07:33:22.476Z,3.7
2022-11-29T07:36:22.460Z,3.7
2022-11-29T07:39:22.490Z,3.7
2022-11-29T07:42:22.473Z,3.7
2022-11-29T07:45:22.489Z,3.8
2022-11-29T07:48:22.492Z,3.8
2022-11-29T07:51:22.488Z,3.9
2022-11-29T07:54:22.490Z,3.9
2022-11-29T07:57:22.523Z,3.9
2022-11-29T08:00:22.504Z,3.9
2022-11-29T08:03:22.513Z,4
2022-11-29T08:06:22.508Z,4
2022-11-29T08:09:22.516Z,4
2022-11-29T08:12:22.516Z,4.1
2022-11-29T08:15:22.549Z,4
2022-11-29T08:18:22.542Z,4.1
2022-11-29T08:21:22.541Z,4.1
2022-11-29T08:24:22.541Z,4.1
2022-11-29T08:27:22.545Z,4.2
2022-11-29T08:30:22.552Z,4.2
2022-11-29T08:33:22.586Z,4.2
2022-11-29T08:36:22.557Z,4.2
2022-11-29T08:39:22.563Z,4.2
2022-11-29T08:42:22.561Z,4.3
2022-11-29T08:45:22.596Z,4.3
2022-11-29T08:48:22.581Z,4.3
2022-11-29T08:51:22.611Z,4.4
2022-11-29T08:54:22.590Z,4.4
2022-11-29T08:57:40.107Z,4.4
2022-11-29T09:00:22.663Z,4.4
2022-11-29T09:03:22.622Z,4.4
2022-11-29T09:06:22.659Z,4.5
2022-11-29T09:09:22.691Z,4.5
2022-11-29T09:12:22.655Z,4.5
2022-11-29T09:15:22.657Z,4.5
2022-11-29T09:18:22.671Z,4.5
2022-11-29T09:21:22.702Z,4.6
2022-11-29T09:24:22.708Z,4.6
2022-11-29T09:27:22.734Z,4.6
2022-11-29T09:30:23.734Z,4.6
2022-11-29T09:33:22.725Z,4.7
2022-11-29T09:36:28.041Z,4.7
2022-11-29T09:39:22.711Z,4.7
2022-11-29T09:42:22.713Z,4.7
2022-11-29T09:45:22.738Z,4.8
2022-11-29T09:48:22.739Z,4.8
2022-11-29T09:51:22.715Z,4.9
2022-11-29T09:54:22.728Z,4.9
2022-11-29T09:57:22.728Z,4.9
2022-11-29T10:00:22.728Z,4.9
2022-11-29T10:03:22.779Z,5
2022-11-29T10:06:22.739Z,5
2022-11-29T10:09:22.743Z,5
2022-11-29T10:12:22.747Z,5
2022-11-29T10:15:22.749Z,5
2022-11-29T10:18:22.754Z,5.1
2022-11-29T10:21:22.778Z,5.2
2022-11-29T10:24:22.753Z,5.2
2022-11-29T10:27:22.750Z,5.1
2022-11-29T10:30:22.746Z,5.1
2022-11-29T10:33:22.760Z,5.1
2022-11-29T10:36:22.747Z,5.1
2022-11-29T10:39:22.774Z,5
2022-11-29T10:42:22.753Z,5
2022-11-29T10:45:22.755Z,5.1
2022-11-29T10:48:22.777Z,5.1
2022-11-29T10:51:22.761Z,5.1
2022-11-29T10:54:22.765Z,5.2
2022-11-29T10:57:22.792Z,5.2
2022-11-29T11:00:22.768Z,5.3
2022-11-29T11:03:22.777Z,5.3
2022-11-29T11:06:22.773Z,5.3
2022-11-29T11:09:22.770Z,5.3
2022-11-29T11:12:22.773Z,5.3
2022-11-29T11:15:22.828Z,5.3
2022-11-29T11:18:22.795Z,5.3
2022-11-29T11:21:22.788Z,5.3
2022-11-29T11:24:22.790Z,5.3
2022-11-29T11:27:22.796Z,5.3
2022-11-29T11:30:22.793Z,5.3
2022-11-29T11:33:22.839Z,5.4
2022-11-29T11:36:22.804Z,5.3
2022-11-29T11:39:22.811Z,5.3
2022-11-29T11:42:22.818Z,5.3
2022-11-29T11:45:22.814Z,5.4
2022-11-29T11:48:22.828Z,5.4
2022-11-29T11:51:22.860Z,5.4
2022-11-29T11:54:22.836Z,5.4
2022-11-29T11:57:22.831Z,5.4
2022-11-29T12:00:40.757Z,5.4
2022-11-29T12:03:22.872Z,5.4
2022-11-29T12:06:22.840Z,5.5
2022-11-29T12:09:22.874Z,5.4
2022-11-29T12:12:22.848Z,5.4
2022-11-29T12:15:22.862Z,5.4
2022-11-29T12:18:22.867Z,5.4
2022-11-29T12:21:22.860Z,5.4
2022-11-29T12:24:22.869Z,5.4
2022-11-29T12:27:22.902Z,5.4
2022-11-29T12:30:22.873Z,5.4
2022-11-29T12:33:22.891Z,5.4
2022-11-29T12:36:22.885Z,5.4
2022-11-29T12:39:22.892Z,5.4
2022-11-29T12:42:22.892Z,5.4
2022-11-29T12:45:22.929Z,5.4
2022-11-29T12:48:22.919Z,5.3
2022-11-29T12:51:22.923Z,5.3
2022-11-29T12:54:22.915Z,5.3
2022-11-29T12:57:22.922Z,5.4
2022-11-29T13:00:22.926Z,5.4
2022-11-29T13:03:22.968Z,5.3
2022-11-29T13:06:22.938Z,5.3
2022-11-29T13:09:22.946Z,5.3
2022-11-29T13:12:22.952Z,5.3
2022-11-29T13:15:22.956Z,5.3
2022-11-29T13:18:22.981Z,5.3
2022-11-29T13:21:23.003Z,5.3
2022-11-29T13:24:22.985Z,5.3
2022-11-29T13:27:22.988Z,5.3
2022-11-29T13:30:23.003Z,5.3
2022-11-29T13:33:23.024Z,5.2
2022-11-29T13:36:23.019Z,5.2
2022-11-29T13:39:23.048Z,5.2
2022-11-29T13:42:23.033Z,5.1
2022-11-29T13:45:23.037Z,5.1
2022-11-29T13:48:27.733Z,5.1
2022-11-29T13:51:23.055Z,5.1
2022-11-29T13:54:23.063Z,5.1
2022-11-29T13:57:23.104Z,5.1
2022-11-29T14:00:23.079Z,5.1
2022-11-29T14:03:23.097Z,5.1
2022-11-29T14:06:23.099Z,5.1
2022-11-29T14:09:23.106Z,5
2022-11-29T14:12:23.117Z,5
2022-11-29T14:15:23.150Z,5
2022-11-29T14:18:23.141Z,5
2022-11-29T14:21:23.139Z,4.9
2022-11-29T14:24:23.150Z,4.9
2022-11-29T14:27:23.160Z,4.9
2022-11-29T14:30:23.163Z,4.9
2022-11-29T14:33:23.213Z,4.9
2022-11-29T14:36:23.185Z,4.8
2022-11-29T14:39:23.193Z,4.8
2022-11-29T14:42:23.200Z,4.8
2022-11-29T14:45:23.214Z,4.7
2022-11-29T14:48:23.233Z,4.7
2022-11-29T14:51:23.260Z,4.6
2022-11-29T14:54:23.240Z,4.6
2022-11-29T14:57:23.253Z,4.6
2022-11-29T15:00:23.258Z,4.6
2022-11-29T15:03:23.294Z,4.5
2022-11-29T15:06:23.280Z,4.5
2022-11-29T15:09:23.315Z,4.5
2022-11-29T15:12:23.294Z,4.5
2022-11-29T15:15:23.298Z,4.5
2022-11-29T15:18:23.316Z,4.4
2022-11-29T15:21:23.318Z,4.4
2022-11-29T15:24:28.104Z,4.4
2022-11-29T15:27:23.350Z,4.4
2022-11-29T15:30:23.347Z,4.4
2022-11-29T15:33:23.352Z,4.4
2022-11-29T15:36:23.352Z,4.4
2022-11-29T15:39:23.363Z,4.4
2022-11-29T15:42:23.910Z,4.4
2022-11-29T15:45:23.472Z,4.4
2022-11-29T15:48:23.404Z,4.4
2022-11-29T15:51:23.392Z,4.4
2022-11-29T15:54:23.401Z,4.4
2022-11-29T15:57:23.403Z,4.4
2022-11-29T16:00:23.412Z,4.4
2022-11-29T16:03:23.457Z,4.4
2022-11-29T16:06:23.421Z,4.3
2022-11-29T16:09:23.431Z,4.4
2022-11-29T16:12:23.446Z,4.3
2022-11-29T16:15:23.454Z,4.4
2022-11-29T16:18:23.472Z,4.3
2022-11-29T16:21:23.489Z,4.4
2022-11-29T16:24:23.480Z,4.4
2022-11-29T16:27:23.489Z,4.4
2022-11-29T16:30:23.497Z,4.4
2022-11-29T16:33:23.513Z,4.4
2022-11-29T16:36:23.509Z,4.3
2022-11-29T16:39:23.546Z,4.3
2022-11-29T16:42:25.513Z,4.4
2022-11-29T16:45:23.534Z,4.4
2022-11-29T16:48:23.559Z,4.4
2022-11-29T16:51:23.565Z,4.3
2022-11-29T16:54:23.558Z,4.3
2022-11-29T16:57:23.600Z,4.3
2022-11-29T17:00:23.578Z,4.3
2022-11-29T17:03:23.617Z,4.3
2022-11-29T17:06:23.590Z,4.3
2022-11-29T17:09:23.608Z,4.3
2022-11-29T17:12:23.614Z,4.3
2022-11-29T17:15:23.648Z,4.3
2022-11-29T17:18:23.642Z,4.3
2022-11-29T17:21:23.638Z,4.3
2022-11-29T17:24:23.650Z,4.3
2022-11-29T17:27:23.652Z,4.3
2022-11-29T17:30:23.664Z,4.3
2022-11-29T17:33:23.714Z,4.4
2022-11-29T17:36:23.688Z,4.4
2022-11-29T17:39:23.707Z,4.3
2022-11-29T17:42:23.711Z,4.4
2022-11-29T17:45:23.720Z,4.3
2022-11-29T17:48:23.743Z,4.4
2022-11-29T17:51:50.410Z,4.4
2022-11-29T17:54:23.748Z,4.4
2022-11-29T17:57:23.763Z,4.4
2022-11-29T18:00:23.772Z,4.4
2022-11-29T18:03:23.791Z,4.4
2022-11-29T18:06:23.794Z,4.4
2022-11-29T18:09:23.828Z,4.5
2022-11-29T18:12:23.808Z,4.5
2022-11-29T18:15:23.820Z,4.5
2022-11-29T18:18:23.837Z,4.5
2022-11-29T18:21:23.833Z,4.5
2022-11-29T18:24:23.842Z,4.5
2022-11-29T18:27:23.875Z,4.5
2022-11-29T18:30:23.868Z,4.5
2022-11-29T18:33:23.886Z,4.5
2022-11-29T18:36:23.887Z,4.5
2022-11-29T18:39:23.898Z,4.5
2022-11-29T18:42:23.911Z,4.5
2022-11-29T18:45:23.945Z,4.5
2022-11-29T18:48:23.941Z,4.5
2022-11-29T18:51:23.936Z,4.5
2022-11-29T18:54:23.951Z,4.5
2022-11-29T18:57:23.951Z,4.5
2022-11-29T19:00:23.971Z,4.5
2022-11-29T19:03:24.021Z,4.5
2022-11-29T19:06:23.989Z,4.5
2022-11-29T19:09:23.997Z,4.5
2022-11-29T19:12:24.016Z,4.5
2022-11-29T19:15:24.023Z,4.5
2022-11-29T19:18:24.057Z,4.5
2022-11-29T19:21:24.081Z,4.5
2022-11-29T19:24:24.070Z,4.5
2022-11-29T19:27:24.083Z,4.5
2022-11-29T19:30:24.096Z,4.5
2022-11-29T19:33:24.117Z,4.4
2022-11-29T19:36:24.110Z,4.5
2022-11-29T19:39:24.153Z,4.5
2022-11-29T19:42:24.139Z,4.4
2022-11-29T19:45:24.146Z,4.5
2022-11-29T19:48:24.169Z,4.4
2022-11-29T19:51:24.170Z,4.4
2022-11-29T19:54:24.177Z,4.4
2022-11-29T19:57:24.222Z,4.4
2022-11-29T20:00:24.200Z,4.4
2022-11-29T20:03:24.221Z,4.4
2022-11-29T20:06:24.221Z,4.4
2022-11-29T20:09:24.231Z,4.4
2022-11-29T20:12:24.241Z,4.4
2022-11-29T20:15:24.274Z,4.4
2022-11-29T20:18:24.272Z,4.4
2022-11-29T20:21:24.269Z,4.4
2022-11-29T20:24:24.279Z,4.4
2022-11-29T20:27:24.291Z,4.4
2022-11-29T20:30:24.304Z,4.4
2022-11-29T20:33:24.347Z,4.4
2022-11-29T20:36:24.321Z,4.4
2022-11-29T20:39:24.328Z,4.4
2022-11-29T20:42:24.351Z,4.4
2022-11-29T20:45:24.344Z,4.4
2022-11-29T20:48:24.371Z,4.4
2022-11-29T20:51:24.389Z,4.4
2022-11-29T20:54:24.370Z,4.4
2022-11-29T20:57:24.378Z,4.4
2022-11-29T21:00:24.382Z,4.4
2022-11-29T21:03:24.424Z,4.4
2022-11-29T21:06:24.403Z,4.4
2022-11-29T21:09:24.434Z,4.4
2022-11-29T21:12:24.421Z,4.4
2022-11-29T21:15:24.418Z,4.4
2022-11-29T21:18:24.441Z,4.4
2022-11-29T21:21:24.450Z,4.4
2022-11-29T21:24:24.455Z,4.4
2022-11-29T21:27:24.483Z,4.4
2022-11-29T21:30:24.460Z,4.4
2022-11-29T21:33:24.483Z,4.4
2022-11-29T21:36:24.473Z,4.4
2022-11-29T21:39:24.482Z,4.4
2022-11-29T21:42:24.491Z,4.4
2022-11-29T21:45:24.526Z,4.4
2022-11-29T21:48:24.515Z,4.4
2022-11-29T21:51:24.515Z,4.4
2022-11-29T21:54:24.521Z,4.4
2022-11-29T21:57:24.526Z,4.4
2022-11-29T22:00:24.533Z,4.4
2022-11-29T22:03:24.579Z,4.4
2022-11-29T22:06:24.549Z,4.4
2022-11-29T22:09:24.551Z,4.4
2022-11-29T22:12:33.991Z,4.4
2022-11-29T22:15:25.279Z,4.4
2022-11-29T22:18:24.580Z,4.4
2022-11-29T22:21:24.609Z,4.4
2022-11-29T22:24:24.587Z,4.4
2022-11-29T22:27:24.595Z,4.4
2022-11-29T22:30:24.601Z,4.4
2022-11-29T22:33:24.618Z,4.4
2022-11-29T22:36:24.615Z,4.4
2022-11-29T22:39:24.639Z,4.4
2022-11-29T22:42:24.618Z,4.4
2022-11-29T22:45:24.628Z,4.4
2022-11-29T22:48:24.645Z,4.4
2022-11-29T22:51:24.637Z,4.4
2022-11-29T22:54:24.643Z,4.4
2022-11-29T22:57:24.675Z,4.4
2022-11-29T23:00:24.652Z,4.4
2022-11-29T23:03:24.660Z,4.4
2022-11-29T23:06:24.659Z,4.4
2022-11-29T23:09:24.662Z,4.4
2022-11-29T23:12:24.667Z,4.4
2022-11-29T23:15:24.703Z,4.4
2022-11-29T23:18:24.683Z,4.4
2022-11-29T23:21:24.685Z,4.4
2022-11-29T23:24:24.687Z,4.4
2022-11-29T23:27:24.685Z,4.4
2022-11-29T23:30:24.690Z,4.4
2022-11-29T23:33:24.724Z,4.4
2022-11-29T23:36:24.697Z,4.4
2022-11-29T23:39:24.699Z,4.4
2022-11-29T23:42:24.697Z,4.4
2022-11-29T23:45:24.706Z,4.4
2022-11-29T23:48:24.712Z,4.3
2022-11-29T23:51:24.736Z,4.3
2022-11-29T23:54:24.708Z,4.3
2022-11-29T23:57:24.710Z,4.4
